Time;durP1;ratioP1;P1;durP2;ratioP2;P2;SDS_P1;SDS_P2;PMS_P1;PMS_P2;Temp;Humidity;BMP_temperature;BMP_pressure;BME280_temperature;BME280_humidity;BME280_pressure;Samples;Min_cycle;Max_cycle;Signal;HPM_P1;HPM_P2
2021/10/12 00:00:10;;;;;;;6.68;5.47;;;22.80;43.70;;;;;;4780173;29;20424;-59
2021/10/12 00:02:37;;;;;;;6.05;5.40;;;22.80;43.80;;;;;;4780551;29;20405;-59
2021/10/12 00:05:05;;;;;;;6.50;5.55;;;22.80;43.80;;;;;;4776325;29;20384;-59
2021/10/12 00:07:32;;;;;;;6.45;5.35;;;22.80;43.70;;;;;;4775900;29;20086;-58
2021/10/12 00:09:59;;;;;;;8.05;6.05;;;22.80;43.80;;;;;;4780540;29;20146;-59
2021/10/12 00:12:26;;;;;;;6.70;5.40;;;22.80;43.80;;;;;;4780669;29;20390;-59
2021/10/12 00:14:54;;;;;;;7.05;5.22;;;22.70;43.70;;;;;;4775304;29;20095;-59
2021/10/12 00:17:21;;;;;;;7.00;5.72;;;22.80;43.80;;;;;;4775207;29;20059;-59
2021/10/12 00:19:48;;;;;;;6.18;5.00;;;22.70;43.80;;;;;;4784071;29;20142;-59
2021/10/12 00:22:15;;;;;;;8.02;6.25;;;22.70;43.80;;;;;;4784436;29;20138;-59
2021/10/12 00:24:45;;;;;;;8.20;6.05;;;22.70;43.80;;;;;;4779322;29;20182;-59
2021/10/12 00:27:12;;;;;;;6.65;5.57;;;22.70;43.80;;;;;;4778274;29;20063;-59
2021/10/12 00:29:39;;;;;;;7.65;5.78;;;22.70;43.80;;;;;;4783992;29;20096;-59
2021/10/12 00:32:07;;;;;;;6.90;5.95;;;22.70;43.80;;;;;;4783649;29;20725;-59
2021/10/12 00:34:34;;;;;;;6.55;5.20;;;22.70;43.80;;;;;;4782406;29;20138;-58
2021/10/12 00:37:02;;;;;;;7.68;5.18;;;22.70;43.80;;;;;;4775435;29;20421;-59
2021/10/12 00:39:29;;;;;;;7.20;5.57;;;22.70;43.80;;;;;;4782542;29;20091;-59
2021/10/12 00:41:56;;;;;;;6.15;5.30;;;22.70;43.90;;;;;;4782733;30;20489;-60
2021/10/12 00:44:24;;;;;;;7.25;5.68;;;22.70;43.90;;;;;;4783276;29;20139;-59
2021/10/12 00:46:52;;;;;;;6.72;5.20;;;22.70;43.80;;;;;;4766693;29;20090;-59
2021/10/12 00:49:19;;;;;;;6.63;5.15;;;22.70;43.80;;;;;;4782076;29;20062;-59
2021/10/12 00:51:46;;;;;;;6.95;5.43;;;22.70;43.90;;;;;;4782826;29;20506;-58
2021/10/12 00:54:13;;;;;;;6.20;5.30;;;22.70;43.80;;;;;;4783508;29;20063;-59
2021/10/12 00:56:41;;;;;;;5.03;4.53;;;22.70;43.90;;;;;;4773999;29;20104;-59
2021/10/12 00:59:09;;;;;;;6.78;5.13;;;22.70;43.80;;;;;;4783043;29;20084;-59
2021/10/12 01:01:38;;;;;;;8.48;6.15;;;22.70;43.90;;;;;;4782292;30;20139;-59
2021/10/12 01:04:06;;;;;;;5.15;4.65;;;22.70;43.90;;;;;;4774711;29;20121;-59
2021/10/12 01:06:34;;;;;;;6.70;5.35;;;22.70;43.90;;;;;;4769555;30;20062;-58
2021/10/12 01:09:01;;;;;;;6.32;5.15;;;22.70;43.90;;;;;;4785274;29;20093;-58
2021/10/12 01:11:28;;;;;;;7.18;5.43;;;22.70;43.90;;;;;;4785017;29;20238;-58
2021/10/12 01:13:55;;;;;;;5.25;4.75;;;22.70;43.90;;;;;;4785098;29;20071;-58
2021/10/12 01:16:23;;;;;;;6.30;4.88;;;22.70;43.90;;;;;;4775959;29;20134;-58
2021/10/12 01:18:59;;;;;;;5.47;4.60;;;22.70;43.90;;;;;;4783728;29;20061;-58
2021/10/12 01:21:28;;;;;;;6.03;4.90;;;22.70;43.90;;;;;;4784893;29;20075;-57
2021/10/12 01:23:57;;;;;;;6.22;5.30;;;22.70;43.90;;;;;;4783928;29;20488;-57
2021/10/12 01:26:24;;;;;;;5.72;4.72;;;22.70;43.90;;;;;;4773472;29;20119;-58
2021/10/12 01:28:51;;;;;;;5.20;4.70;;;22.70;43.90;;;;;;4784509;29;20267;-58
2021/10/12 01:31:27;;;;;;;6.07;5.15;;;22.60;43.90;;;;;;4785015;29;20151;-57
2021/10/12 01:33:55;;;;;;;5.25;4.75;;;22.70;43.90;;;;;;4784072;29;20109;-58
2021/10/12 01:36:22;;;;;;;5.28;4.55;;;22.70;43.90;;;;;;4774386;29;20059;-57
2021/10/12 01:38:49;;;;;;;4.57;4.00;;;22.60;43.90;;;;;;4784690;29;20201;-57
2021/10/12 01:41:17;;;;;;;5.88;4.70;;;22.60;43.90;;;;;;4771299;29;20481;-57
2021/10/12 01:43:44;;;;;;;6.13;5.03;;;22.60;43.90;;;;;;4766798;30;20060;-57
2021/10/12 01:46:11;;;;;;;5.15;4.55;;;22.60;43.90;;;;;;4768398;30;20058;-58
2021/10/12 01:48:39;;;;;;;6.03;4.60;;;22.60;43.90;;;;;;4770267;29;20091;-58
2021/10/12 01:51:06;;;;;;;5.13;4.45;;;22.60;43.90;;;;;;4769455;30;20058;-58
2021/10/12 01:53:33;;;;;;;5.68;4.93;;;22.60;43.90;;;;;;4784508;29;20051;-57
2021/10/12 01:56:02;;;;;;;5.72;4.72;;;22.60;43.90;;;;;;4776133;29;20292;-58
2021/10/12 01:58:29;;;;;;;5.68;4.13;;;22.60;43.90;;;;;;4784231;29;20138;-58
2021/10/12 02:00:57;;;;;;;5.32;4.40;;;22.60;44.50;;;;;;4784428;29;20670;-58
2021/10/12 02:03:25;;;;;;;6.22;4.68;;;22.60;44.00;;;;;;4780804;29;20056;-58
2021/10/12 02:05:53;;;;;;;4.88;4.40;;;22.60;44.00;;;;;;4770311;30;20274;-59
2021/10/12 02:08:20;;;;;;;5.45;4.32;;;22.60;44.00;;;;;;4781437;29;20062;-58
2021/10/12 02:10:47;;;;;;;4.50;4.10;;;22.70;44.00;;;;;;4781108;30;20055;-60
2021/10/12 02:13:15;;;;;;;5.32;4.50;;;22.60;44.00;;;;;;4781913;29;20419;-60
2021/10/12 02:15:42;;;;;;;3.78;3.47;;;22.60;44.00;;;;;;4773547;29;20545;-58
2021/10/12 02:18:10;;;;;;;5.43;4.13;;;22.60;44.00;;;;;;4767882;29;20059;-58
2021/10/12 02:20:37;;;;;;;4.88;3.92;;;22.60;44.00;;;;;;4763469;30;20131;-58
2021/10/12 02:23:05;;;;;;;5.50;4.50;;;22.60;44.00;;;;;;4776473;30;20139;-58
2021/10/12 02:25:32;;;;;;;5.15;4.38;;;22.60;44.00;;;;;;4764657;30;20497;-58
2021/10/12 02:27:59;;;;;;;5.72;4.65;;;22.60;44.00;;;;;;4778052;29;20609;-58
2021/10/12 02:30:27;;;;;;;5.25;4.75;;;22.60;44.00;;;;;;4780071;29;20075;-58
2021/10/12 02:32:54;;;;;;;4.72;4.32;;;22.60;44.00;;;;;;4781352;29;20051;-59
2021/10/12 02:35:21;;;;;;;5.82;4.63;;;22.60;44.00;;;;;;4770544;29;20091;-59
2021/10/12 02:37:48;;;;;;;4.95;4.38;;;22.50;44.00;;;;;;4770111;30;20402;-59
2021/10/12 02:40:15;;;;;;;5.63;4.57;;;22.50;44.00;;;;;;4769506;30;20612;-59
2021/10/12 02:42:43;;;;;;;4.57;4.15;;;22.60;44.60;;;;;;4781336;29;20552;-60
2021/10/12 02:45:10;;;;;;;5.28;4.40;;;22.50;44.00;;;;;;4777160;29;20142;-59
2021/10/12 02:47:37;;;;;;;5.65;4.18;;;22.50;44.00;;;;;;4776754;29;20055;-59
2021/10/12 02:50:06;;;;;;;4.10;3.70;;;22.60;44.00;;;;;;4781480;29;20134;-59
2021/10/12 02:52:34;;;;;;;4.05;3.63;;;22.60;44.00;;;;;;4773930;29;20486;-59
2021/10/12 02:55:02;;;;;;;5.10;4.07;;;22.60;44.00;;;;;;4763703;30;20055;-58
2021/10/12 02:57:32;;;;;;;4.20;3.80;;;22.50;44.00;;;;;;4775371;29;20062;-59
2021/10/12 03:00:00;;;;;;;4.50;4.10;;;22.50;44.00;;;;;;4781438;29;20051;-59
2021/10/12 03:02:27;;;;;;;4.40;4.00;;;22.50;44.20;;;;;;4781815;29;20102;-59
2021/10/12 03:04:55;;;;;;;4.35;3.60;;;22.50;44.00;;;;;;4766734;29;20059;-59
2021/10/12 03:07:22;;;;;;;7.53;3.58;;;22.50;44.00;;;;;;4775640;29;20098;-59
2021/10/12 03:09:50;;;;;;;4.57;3.83;;;22.50;43.90;;;;;;4781063;29;20629;-59
2021/10/12 03:12:17;;;;;;;4.00;3.67;;;22.50;43.90;;;;;;4781597;29;20120;-58
2021/10/12 03:14:44;;;;;;;4.20;3.63;;;22.60;44.00;;;;;;4776395;29;20053;-59
2021/10/12 03:17:11;;;;;;;5.05;4.47;;;22.50;44.00;;;;;;4776062;29;20509;-59
2021/10/12 03:19:39;;;;;;;4.22;3.83;;;22.50;44.00;;;;;;4781176;29;20150;-58
2021/10/12 03:22:15;;;;;;;4.72;3.40;;;22.50;44.00;;;;;;4780972;29;20482;-59
2021/10/12 03:24:43;;;;;;;4.55;4.05;;;22.50;43.90;;;;;;4775251;29;20438;-59
2021/10/12 03:27:11;;;;;;;4.53;4.13;;;22.50;44.00;;;;;;4773365;30;20058;-59
2021/10/12 03:29:39;;;;;;;4.07;3.30;;;22.50;43.90;;;;;;4780784;29;20864;-59
2021/10/12 03:32:06;;;;;;;4.40;4.00;;;22.50;43.90;;;;;;4780962;29;20051;-59
2021/10/12 03:34:34;;;;;;;3.78;3.40;;;22.50;43.90;;;;;;4779431;29;20172;-60
2021/10/12 03:37:03;;;;;;;4.88;3.38;;;22.50;44.00;;;;;;4775295;29;20096;-59
2021/10/12 03:39:30;;;;;;;4.43;3.67;;;22.50;43.90;;;;;;4780301;29;20134;-59
2021/10/12 03:41:57;;;;;;;5.03;4.15;;;22.50;43.90;;;;;;4776792;30;20069;-59
2021/10/12 03:44:29;;;;;;;4.00;3.50;;;22.50;43.90;;;;;;4778058;29;20047;-59
2021/10/12 03:46:56;;;;;;;3.97;3.58;;;22.50;43.90;;;;;;4771788;30;20395;-59
2021/10/12 03:49:24;;;;;;;4.38;3.97;;;22.50;43.90;;;;;;4793856;29;20070;-59
2021/10/12 03:51:51;;;;;;;4.20;3.80;;;22.50;44.00;;;;;;4778282;29;20182;-59
2021/10/12 03:54:18;;;;;;;3.92;3.53;;;22.50;44.00;;;;;;4793810;29;20059;-60
2021/10/12 03:56:45;;;;;;;4.90;3.88;;;22.50;44.00;;;;;;4770619;29;20524;-59
2021/10/12 03:59:12;;;;;;;4.45;4.05;;;22.50;44.00;;;;;;4779012;29;20142;-59
2021/10/12 04:01:39;;;;;;;4.75;3.78;;;22.50;44.60;;;;;;4780492;29;20082;-59
2021/10/12 04:04:06;;;;;;;5.28;4.03;;;22.50;44.10;;;;;;4780125;29;20055;-59
2021/10/12 04:06:33;;;;;;;3.78;3.35;;;22.50;44.10;;;;;;4771106;29;20062;-60
2021/10/12 04:09:00;;;;;;;4.68;3.72;;;22.50;44.10;;;;;;4770174;29;20117;-59
2021/10/12 04:11:28;;;;;;;4.50;3.78;;;22.50;44.10;;;;;;4768841;29;20136;-59
2021/10/12 04:13:55;;;;;;;4.32;3.55;;;22.40;44.00;;;;;;4762394;30;20162;-59
2021/10/12 04:16:22;;;;;;;3.80;3.30;;;22.40;44.00;;;;;;4770829;29;20051;-59
2021/10/12 04:18:49;;;;;;;3.58;3.10;;;22.40;44.00;;;;;;4774665;29;20434;-59
2021/10/12 04:21:16;;;;;;;5.43;3.33;;;22.50;44.10;;;;;;4771320;29;20139;-59
2021/10/12 04:23:43;;;;;;;3.40;3.10;;;22.40;44.10;;;;;;4776728;29;20127;-59
2021/10/12 04:26:13;;;;;;;5.05;3.80;;;22.40;44.10;;;;;;4772043;29;20155;-59
2021/10/12 04:28:40;;;;;;;3.58;3.28;;;22.40;44.10;;;;;;4777896;29;20043;-59
2021/10/12 04:31:07;;;;;;;4.07;3.55;;;22.40;44.10;;;;;;4763528;29;20060;-59
2021/10/12 04:33:35;;;;;;;3.67;3.33;;;22.40;44.10;;;;;;4772140;30;20047;-58
2021/10/12 04:36:02;;;;;;;4.15;3.40;;;22.50;44.10;;;;;;4770285;29;20142;-60
2021/10/12 04:38:29;;;;;;;3.40;3.10;;;22.40;44.10;;;;;;4778341;29;20059;-59
2021/10/12 04:40:57;;;;;;;4.53;3.45;;;22.50;44.20;;;;;;4779006;29;20082;-59
2021/10/12 04:43:24;;;;;;;4.88;3.25;;;22.40;44.10;;;;;;4777506;29;20086;-59
2021/10/12 04:45:51;;;;;;;3.70;3.40;;;22.40;44.10;;;;;;4769253;29;20063;-59
2021/10/12 04:48:18;;;;;;;4.45;3.75;;;22.50;44.10;;;;;;4770824;29;20126;-59
2021/10/12 04:50:45;;;;;;;4.35;3.67;;;22.50;44.10;;;;;;4774250;29;20135;-59
2021/10/12 04:53:13;;;;;;;2.78;2.58;;;22.40;44.10;;;;;;4777118;29;20122;-59
2021/10/12 04:55:43;;;;;;;3.15;2.80;;;22.40;44.10;;;;;;4770940;29;20052;-59
2021/10/12 04:58:10;;;;;;;4.32;3.45;;;22.40;44.10;;;;;;4773644;29;20055;-59
2021/10/12 05:00:37;;;;;;;3.85;3.42;;;22.50;44.20;;;;;;4777358;29;20072;-59
2021/10/12 05:03:05;;;;;;;4.15;3.75;;;22.40;44.10;;;;;;4779420;29;20135;-59
2021/10/12 05:05:33;;;;;;;3.28;2.97;;;22.40;44.10;;;;;;4773824;29;20209;-59
2021/10/12 05:08:01;;;;;;;5.25;3.75;;;22.40;44.00;;;;;;4776112;29;20322;-59
2021/10/12 05:10:28;;;;;;;4.00;3.22;;;22.40;43.90;;;;;;4782333;29;20051;-59
2021/10/12 05:12:56;;;;;;;4.10;3.70;;;22.50;43.90;;;;;;4780728;30;20137;-59
2021/10/12 05:15:28;;;;;;;5.00;3.63;;;22.50;43.80;;;;;;4772778;29;20094;-60
2021/10/12 05:17:56;;;;;;;3.42;3.13;;;22.50;43.60;;;;;;4759793;30;20142;-59
2021/10/12 05:20:23;;;;;;;4.38;3.60;;;22.50;43.50;;;;;;4780547;29;20055;-59
2021/10/12 05:22:51;;;;;;;6.13;3.85;;;22.60;43.40;;;;;;4778748;29;20091;-60
2021/10/12 05:25:18;;;;;;;4.35;3.65;;;22.60;43.30;;;;;;4773092;29;20055;-59
2021/10/12 05:27:45;;;;;;;3.90;3.25;;;22.60;43.30;;;;;;4771406;30;20527;-58
2021/10/12 05:30:13;;;;;;;3.60;3.13;;;22.60;43.40;;;;;;4776952;30;20502;-59
2021/10/12 05:32:41;;;;;;;4.32;3.67;;;22.60;43.40;;;;;;4777236;29;20517;-58
2021/10/12 05:35:09;;;;;;;4.35;3.50;;;22.60;43.30;;;;;;4773627;29;20094;-58
2021/10/12 05:37:37;;;;;;;4.00;3.20;;;22.60;43.10;;;;;;4772790;29;20050;-58
2021/10/12 05:40:07;;;;;;;5.00;3.63;;;22.70;43.00;;;;;;4772134;29;20063;-58
2021/10/12 05:42:34;;;;;;;5.50;3.87;;;22.80;42.90;;;;;;4767756;29;20143;-59
2021/10/12 05:45:01;;;;;;;4.93;3.80;;;22.80;42.70;;;;;;4765616;29;20056;-58
2021/10/12 05:47:28;;;;;;;4.15;3.20;;;22.90;42.60;;;;;;4761551;29;20067;-58
2021/10/12 05:49:55;;;;;;;4.28;3.72;;;22.90;42.50;;;;;;4776237;29;20074;-58
2021/10/12 05:52:24;;;;;;;4.30;3.65;;;23.00;42.50;;;;;;4771929;30;20130;-58
2021/10/12 05:55:04;;;;;;;4.55;3.90;;;23.00;42.20;;;;;;4768049;29;20498;-58
2021/10/12 05:57:40;;;;;;;;;;;23.10;41.90;;;;;;4768157;30;20107;-58
2021/10/12 06:00:08;;;;;;;5.57;4.25;;;23.20;41.90;;;;;;4774779;30;19925;-59
2021/10/12 06:02:35;;;;;;;5.57;4.75;;;23.20;41.60;;;;;;4775006;29;20170;-58
2021/10/12 06:05:03;;;;;;;5.20;4.18;;;23.20;41.50;;;;;;4764299;29;20980;-59
2021/10/12 06:07:30;;;;;;;4.15;3.40;;;23.30;41.50;;;;;;4763871;29;20062;-58
2021/10/12 06:09:57;;;;;;;5.93;4.22;;;23.30;41.50;;;;;;4776330;29;20052;-58
2021/10/12 06:12:25;;;;;;;5.32;3.97;;;23.40;41.80;;;;;;4773278;29;20051;-58
2021/10/12 06:14:54;;;;;;;7.05;4.13;;;23.50;41.80;;;;;;4767973;29;20059;-58
2021/10/12 06:17:21;;;;;;;5.85;4.43;;;23.50;41.70;;;;;;4767644;29;20455;-58
2021/10/12 06:19:48;;;;;;;5.93;3.58;;;23.60;41.70;;;;;;4776288;29;20059;-59
2021/10/12 06:22:15;;;;;;;5.93;4.18;;;23.60;41.60;;;;;;4774206;29;20509;-59
2021/10/12 06:24:42;;;;;;;5.75;4.07;;;23.70;41.50;;;;;;4765575;29;20070;-59
2021/10/12 06:27:09;;;;;;;3.90;3.33;;;23.80;41.60;;;;;;4780009;29;20051;-58
2021/10/12 06:29:37;;;;;;;4.68;3.80;;;23.80;41.50;;;;;;4789397;29;20553;-58
2021/10/12 06:32:04;;;;;;;9.73;4.15;;;23.90;41.40;;;;;;4789335;29;20135;-58
2021/10/12 06:34:31;;;;;;;4.50;3.72;;;23.90;41.20;;;;;;4789370;29;20112;-58
2021/10/12 06:36:58;;;;;;;3.80;3.35;;;24.00;41.10;;;;;;4781089;29;20100;-58
2021/10/12 06:39:25;;;;;;;5.22;4.10;;;24.00;40.80;;;;;;4776314;30;20059;-59
2021/10/12 06:41:52;;;;;;;4.90;4.13;;;24.10;40.80;;;;;;4770301;30;20163;-59
2021/10/12 06:44:19;;;;;;;6.50;3.78;;;24.10;40.70;;;;;;4771411;29;20075;-59
2021/10/12 06:46:47;;;;;;;4.95;4.05;;;24.20;40.80;;;;;;4762764;29;20058;-58
2021/10/12 06:49:14;;;;;;;4.28;3.88;;;24.20;40.80;;;;;;4777060;29;20065;-59
2021/10/12 06:51:43;;;;;;;7.55;4.22;;;24.30;40.60;;;;;;4773268;29;20128;-59
2021/10/12 06:54:17;;;;;;;5.57;4.00;;;24.30;40.50;;;;;;4774854;29;20059;-59
2021/10/12 06:56:44;;;;;;;4.45;3.45;;;24.30;40.40;;;;;;4763404;29;20063;-58
2021/10/12 06:59:12;;;;;;;4.60;3.65;;;24.40;40.40;;;;;;4768676;29;20051;-59
2021/10/12 07:01:39;;;;;;;4.72;3.65;;;24.40;40.20;;;;;;4774326;29;20086;-59
2021/10/12 07:04:07;;;;;;;4.88;3.92;;;24.50;40.20;;;;;;4775793;29;20597;-59
2021/10/12 07:06:35;;;;;;;3.60;3.30;;;24.50;40.10;;;;;;4765122;29;20429;-59
2021/10/12 07:09:02;;;;;;;11.18;4.35;;;24.50;40.30;;;;;;4767187;29;20151;-59
2021/10/12 07:11:29;;;;;;;4.88;4.05;;;24.60;40.20;;;;;;4774817;29;20133;-60
2021/10/12 07:13:57;;;;;;;5.32;3.60;;;24.60;40.00;;;;;;4771891;30;20581;-60
2021/10/12 07:16:25;;;;;;;4.38;3.35;;;24.70;40.10;;;;;;4761679;29;20059;-59
2021/10/12 07:18:53;;;;;;;4.65;3.80;;;24.70;40.00;;;;;;4767829;30;20134;-59
2021/10/12 07:21:20;;;;;;;4.75;3.70;;;24.70;39.90;;;;;;4773311;30;20086;-59
2021/10/12 07:23:47;;;;;;;4.78;3.47;;;24.80;39.90;;;;;;4774376;29;20071;-59
2021/10/12 07:26:14;;;;;;;4.78;3.28;;;24.90;39.80;;;;;;4761899;29;20142;-58
2021/10/12 07:28:41;;;;;;;3.88;2.85;;;24.90;39.80;;;;;;4771748;29;20130;-59
2021/10/12 07:31:09;;;;;;;4.90;2.88;;;24.90;39.60;;;;;;4768972;29;20572;-58
2021/10/12 07:33:36;;;;;;;2.85;2.65;;;24.90;39.50;;;;;;4775152;29;20134;-58
2021/10/12 07:36:05;;;;;;;6.00;3.00;;;25.00;39.30;;;;;;4760601;29;20074;-58
2021/10/12 07:38:32;;;;;;;4.38;3.45;;;25.00;39.20;;;;;;4765843;30;20051;-58
2021/10/12 07:41:00;;;;;;;6.40;4.53;;;25.10;39.10;;;;;;4770358;29;20071;-59
2021/10/12 07:43:32;;;;;;;8.13;3.88;;;25.10;38.80;;;;;;4769339;29;20069;-59
2021/10/12 07:45:59;;;;;;;4.70;3.33;;;25.10;38.90;;;;;;4759823;29;20697;-59
2021/10/12 07:48:26;;;;;;;3.90;3.40;;;25.10;39.00;;;;;;4766453;29;20378;-58
2021/10/12 07:50:53;;;;;;;4.55;3.53;;;25.10;39.20;;;;;;4769061;29;20585;-59
2021/10/12 07:53:21;;;;;;;8.43;4.03;;;25.10;39.20;;;;;;4770933;29;20047;-59
2021/10/12 07:55:54;;;;;;;3.90;3.00;;;25.20;39.20;;;;;;4757331;29;20063;-58
2021/10/12 07:58:21;;;;;;;4.03;3.00;;;25.20;39.10;;;;;;4769504;29;20111;-59
2021/10/12 08:00:48;;;;;;;4.47;2.97;;;25.20;39.20;;;;;;4772020;29;20800;-59
2021/10/12 08:03:17;;;;;;;4.05;3.65;;;25.30;39.30;;;;;;4771788;29;20070;-59
2021/10/12 08:05:44;;;;;;;2.97;2.67;;;25.30;39.20;;;;;;4764647;29;20055;-59
2021/10/12 08:08:11;;;;;;;3.20;2.65;;;25.40;39.20;;;;;;4760247;29;20433;-59
2021/10/12 08:10:39;;;;;;;4.10;3.45;;;25.40;39.30;;;;;;4772011;29;20048;-59
2021/10/12 08:13:11;;;;;;;5.88;2.90;;;25.40;39.20;;;;;;4769969;29;20116;-58
2021/10/12 08:15:41;;;;;;;4.70;3.28;;;25.40;38.90;;;;;;4764411;29;20583;-59
2021/10/12 08:18:08;;;;;;;;;;;25.50;38.60;;;;;;4766415;30;20059;-61
2021/10/12 08:20:36;;;;;;;8.35;3.50;;;25.50;38.40;;;;;;4770192;29;19936;-59
2021/10/12 08:23:03;;;;;;;5.40;3.40;;;25.50;38.60;;;;;;4769846;29;20102;-59
2021/10/12 08:25:34;;;;;;;3.55;2.80;;;25.60;38.70;;;;;;4763849;29;20067;-59
2021/10/12 08:28:01;;;;;;;2.75;2.42;;;25.50;38.40;;;;;;4774277;29;20063;-59
2021/10/12 08:30:28;;;;;;;4.88;2.60;;;25.60;38.50;;;;;;4768637;29;20150;-59
2021/10/12 08:32:55;;;;;;;4.80;2.53;;;25.60;38.60;;;;;;4771020;30;20090;-59
2021/10/12 08:35:22;;;;;;;2.80;2.50;;;25.60;38.70;;;;;;4761831;29;20797;-58
2021/10/12 08:37:50;;;;;;;3.75;2.30;;;25.60;38.70;;;;;;4765590;29;20059;-59
2021/10/12 08:40:17;;;;;;;2.60;2.13;;;25.70;38.50;;;;;;4775676;29;20489;-59
2021/10/12 08:42:51;;;;;;;2.45;2.25;;;25.70;38.40;;;;;;4772321;29;20063;-59
2021/10/12 08:45:21;;;;;;;3.92;2.83;;;25.70;38.20;;;;;;4769362;29;20394;-59
2021/10/12 08:47:49;;;;;;;2.65;2.30;;;25.80;37.90;;;;;;4766249;29;20472;-59
2021/10/12 08:50:20;;;;;;;3.40;2.35;;;25.80;37.70;;;;;;4774819;29;20059;-59
2021/10/12 08:52:48;;;;;;;4.53;2.58;;;25.80;37.70;;;;;;4774069;29;20112;-59
2021/10/12 08:55:16;;;;;;;6.00;2.72;;;25.80;37.60;;;;;;4769934;29;20067;-60
2021/10/12 08:57:45;;;;;;;6.15;1.85;;;25.90;37.60;;;;;;4764490;29;20155;-59
2021/10/12 09:00:20;;;;;;;3.22;2.53;;;25.90;37.50;;;;;;4773042;29;20457;-59
2021/10/12 09:03:16;;;;;;;2.65;2.45;;;25.90;37.30;;;;;;4776403;29;20086;-59
2021/10/12 09:05:56;;;;;;;3.00;2.38;;;25.90;37.30;;;;;;4767536;29;20087;-60
2021/10/12 09:08:29;;;;;;;2.45;2.25;;;25.90;37.30;;;;;;4772406;29;20136;-59
2021/10/12 09:10:57;;;;;;;6.20;3.03;;;25.90;37.20;;;;;;4777940;29;20130;-59
2021/10/12 09:13:27;;;;;;;2.90;2.00;;;25.90;37.20;;;;;;4779121;29;20134;-59
2021/10/12 09:16:09;;;;;;;2.75;2.13;;;25.90;37.20;;;;;;4765239;29;20079;-59
2021/10/12 09:18:53;;;;;;;4.45;2.60;;;26.00;37.10;;;;;;4770474;30;20114;-60
2021/10/12 09:21:23;;;;;;;2.85;1.90;;;25.90;36.80;;;;;;4772361;29;20052;-59
2021/10/12 09:23:50;;;;;;;;;;;26.00;36.90;;;;;;4777286;29;20465;-59
2021/10/12 09:26:23;;;;;;;3.67;2.67;;;26.00;36.80;;;;;;4767150;29;19934;-59
2021/10/12 09:28:58;;;;;;;2.88;2.05;;;26.00;36.80;;;;;;4770438;30;20051;-59
2021/10/12 09:31:34;;;;;;;3.88;1.90;;;26.00;36.70;;;;;;4772732;29;20517;-58
2021/10/12 09:34:03;;;;;;;2.42;2.08;;;26.00;36.70;;;;;;4773238;29;20078;-59
2021/10/12 09:36:34;;;;;;;3.53;2.38;;;26.10;36.70;;;;;;4758363;29;20680;-59
2021/10/12 09:39:02;;;;;;;2.28;2.00;;;26.10;36.70;;;;;;4774244;30;20120;-58
2021/10/12 09:41:30;;;;;;;2.20;2.00;;;26.10;36.70;;;;;;4774890;29;20090;-58
2021/10/12 09:44:16;;;;;;;3.28;2.17;;;26.10;36.70;;;;;;4775089;30;20130;-59
2021/10/12 09:46:46;;;;;;;2.22;2.03;;;26.20;36.50;;;;;;4763078;29;20091;-59
2021/10/12 09:49:23;;;;;;;2.38;2.17;;;26.30;36.30;;;;;;4776669;29;20063;-61
2021/10/12 09:52:13;;;;;;;1.98;1.75;;;26.30;36.30;;;;;;4774547;30;20060;-59
2021/10/12 09:54:49;;;;;;;4.43;2.22;;;26.40;36.40;;;;;;4773568;29;20051;-59
2021/10/12 09:57:18;;;;;;;2.95;2.00;;;26.40;36.30;;;;;;4766054;29;20055;-58
2021/10/12 09:59:46;;;;;;;3.78;2.17;;;26.40;36.30;;;;;;4777089;29;20134;-59
2021/10/12 10:02:20;;;;;;;3.05;1.95;;;26.50;36.20;;;;;;4776326;29;20142;-59
2021/10/12 10:04:50;;;;;;;5.45;1.90;;;26.50;36.30;;;;;;4770667;29;20063;-60
2021/10/12 10:07:30;;;;;;;5.43;2.13;;;26.50;36.20;;;;;;4764351;29;20090;-59
2021/10/12 10:10:01;;;;;;;4.88;2.40;;;26.60;36.20;;;;;;4774560;30;20051;-59
2021/10/12 10:12:28;;;;;;;2.35;2.22;;;26.60;36.20;;;;;;4774132;29;20095;-59
2021/10/12 10:14:55;;;;;;;2.78;1.90;;;26.60;36.10;;;;;;4768108;29;20138;-59
2021/10/12 10:17:23;;;;;;;5.68;2.00;;;26.70;36.10;;;;;;4767794;30;20104;-59
2021/10/12 10:19:51;;;;;;;3.70;2.20;;;26.70;36.00;;;;;;4777514;29;20055;-59
2021/10/12 10:22:43;;;;;;;2.65;2.45;;;26.80;36.10;;;;;;4777068;29;20055;-60
2021/10/12 10:25:37;;;;;;;3.15;2.42;;;26.90;36.00;;;;;;4771657;29;20105;-59
2021/10/12 10:28:25;;;;;;;3.20;2.33;;;27.00;36.00;;;;;;4767625;29;20051;-59
2021/10/12 10:30:57;;;;;;;5.57;1.98;;;27.00;35.90;;;;;;4773830;29;20059;-59
2021/10/12 10:33:34;;;;;;;2.35;2.10;;;27.00;35.60;;;;;;4778343;29;20142;-59
2021/10/12 10:36:04;;;;;;;2.25;1.92;;;27.10;35.60;;;;;;4765766;29;20146;-59
2021/10/12 10:38:43;;;;;;;2.78;2.05;;;27.10;35.50;;;;;;4766568;29;20082;-59
2021/10/12 10:41:24;;;;;;;3.80;1.85;;;27.20;35.30;;;;;;4772137;29;20105;-59
2021/10/12 10:44:00;;;;;;;1.85;1.75;;;27.20;35.30;;;;;;4774830;30;20062;-59
2021/10/12 10:46:37;;;;;;;1.83;1.67;;;27.20;35.80;;;;;;4763748;29;20058;-59
2021/10/12 10:49:18;;;;;;;2.20;2.00;;;27.30;35.60;;;;;;4778500;29;20488;-59
2021/10/12 10:51:48;;;;;;;2.55;2.05;;;27.30;35.60;;;;;;4777714;30;20498;-59
2021/10/12 10:54:54;;;;;;;1.75;1.65;;;27.30;35.50;;;;;;4776354;29;20151;-59
2021/10/12 10:57:25;;;;;;;1.77;1.55;;;27.40;35.40;;;;;;4776967;29;20121;-59
2021/10/12 11:00:23;;;;;;;3.67;1.80;;;27.40;35.40;;;;;;4773064;29;20098;-59
2021/10/12 11:02:51;;;;;;;1.60;1.50;;;27.40;35.10;;;;;;4770997;29;20097;-59
2021/10/12 11:05:39;;;;;;;1.80;1.48;;;27.40;35.20;;;;;;4763628;29;20051;-59
2021/10/12 11:08:16;;;;;;;1.90;1.80;;;27.40;35.00;;;;;;4769943;29;20051;-57
2021/10/12 11:10:46;;;;;;;2.47;1.92;;;27.40;34.90;;;;;;4774258;29;20113;-57
2021/10/12 11:13:33;;;;;;;1.65;1.52;;;27.50;34.90;;;;;;4775779;29;20481;-58
2021/10/12 11:16:04;;;;;;;3.00;2.13;;;27.40;34.70;;;;;;4763249;29;20099;-58
2021/10/12 11:18:31;;;;;;;3.63;2.83;;;27.40;34.20;;;;;;4770080;29;20056;-57
2021/10/12 11:21:12;;;;;;;4.32;2.65;;;27.30;31.70;;;;;;4767463;29;20048;-59
2021/10/12 11:23:41;;;;;;;6.13;3.10;;;27.00;31.40;;;;;;4777242;29;20501;-58
2021/10/12 11:26:11;;;;;;;3.38;2.75;;;26.60;31.00;;;;;;4766476;29;20130;-58
2021/10/12 11:28:41;;;;;;;4.80;2.28;;;26.30;31.80;;;;;;4768590;30;20122;-57
2021/10/12 11:31:11;;;;;;;4.28;2.20;;;26.00;32.80;;;;;;4770242;30;20055;-57
2021/10/12 11:33:43;;;;;;;2.17;1.98;;;25.90;33.80;;;;;;4773410;29;20047;-57
2021/10/12 11:36:13;;;;;;;3.10;2.13;;;25.80;34.20;;;;;;4779946;29;20065;-57
2021/10/12 11:38:44;;;;;;;3.67;1.80;;;25.80;34.40;;;;;;4769482;29;20083;-57
2021/10/12 11:41:23;;;;;;;3.65;1.83;;;25.90;35.20;;;;;;4771490;30;20093;-58
2021/10/12 11:43:53;;;;;;;1.90;1.73;;;25.90;34.80;;;;;;4771710;29;20566;-59
2021/10/12 11:46:24;;;;;;;1.85;1.63;;;25.90;35.20;;;;;;4765039;29;20090;-59
2021/10/12 11:48:57;;;;;;;4.78;2.05;;;26.00;35.40;;;;;;4772988;29;20051;-58
2021/10/12 11:51:27;;;;;;;1.80;1.70;;;26.00;35.50;;;;;;4772279;29;20151;-58
2021/10/12 11:53:55;;;;;;;3.03;1.73;;;26.00;35.50;;;;;;4772289;30;20138;-58
2021/10/12 11:56:24;;;;;;;2.67;1.88;;;26.00;35.50;;;;;;4761482;29;20062;-58
2021/10/12 11:58:56;;;;;;;2.75;1.85;;;26.00;35.60;;;;;;4768842;30;20090;-58
2021/10/12 12:01:34;;;;;;;2.03;1.27;;;26.10;35.50;;;;;;4771940;29;20142;-58
2021/10/12 12:04:04;;;;;;;2.30;1.58;;;26.10;35.40;;;;;;4771541;29;20047;-58
2021/10/12 12:06:34;;;;;;;2.85;1.67;;;26.10;35.50;;;;;;4763421;29;20115;-57
2021/10/12 12:09:03;;;;;;;;;;;26.10;35.40;;;;;;4771493;29;20052;-57
2021/10/12 12:11:31;;;;;;;1.95;1.85;;;26.20;35.70;;;;;;4774616;29;19933;-58
2021/10/12 12:14:00;;;;;;;2.08;1.80;;;26.10;35.60;;;;;;4781061;29;20094;-59
2021/10/12 12:16:33;;;;;;;2.00;1.42;;;26.20;35.60;;;;;;4766288;29;20078;-59
2021/10/12 12:19:17;;;;;;;1.40;1.30;;;26.10;35.50;;;;;;4773813;29;20100;-58
2021/10/12 12:21:44;;;;;;;3.95;1.58;;;26.20;35.50;;;;;;4779090;30;20100;-58
2021/10/12 12:24:19;;;;;;;1.80;1.58;;;26.10;35.30;;;;;;4782060;29;20044;-58
2021/10/12 12:26:47;;;;;;;2.40;1.52;;;26.10;36.10;;;;;;4772920;29;20429;-58
2021/10/12 12:29:21;;;;;;;1.70;1.33;;;26.20;35.60;;;;;;4780241;29;20150;-58
2021/10/12 12:31:54;;;;;;;4.25;1.30;;;26.20;35.40;;;;;;4778295;29;20086;-58
2021/10/12 12:34:30;;;;;;;1.42;1.33;;;26.20;35.40;;;;;;4787513;29;20539;-58
2021/10/12 12:36:58;;;;;;;2.00;1.23;;;26.20;35.40;;;;;;4769828;29;20528;-58
2021/10/12 12:39:45;;;;;;;4.63;1.90;;;26.30;35.50;;;;;;4781985;29;20051;-59
2021/10/12 12:42:34;;;;;;;3.15;1.50;;;26.30;35.60;;;;;;4780236;29;20051;-58
2021/10/12 12:45:18;;;;;;;1.33;1.25;;;26.30;35.30;;;;;;4776847;29;20086;-58
2021/10/12 12:47:58;;;;;;;1.40;1.30;;;26.30;35.20;;;;;;4759307;30;20055;-59
2021/10/12 12:50:30;;;;;;;1.33;1.23;;;26.30;35.20;;;;;;4776072;30;20094;-58
2021/10/12 12:53:01;;;;;;;1.15;1.05;;;26.30;35.30;;;;;;4780293;29;20055;-58
2021/10/12 12:55:34;;;;;;;;;;;26.30;35.20;;;;;;4776254;29;20518;-59
2021/10/12 12:58:01;;;;;;;2.15;1.10;;;26.30;35.50;;;;;;4776460;29;19980;-59
2021/10/12 13:00:29;;;;;;;2.10;1.25;;;26.30;35.50;;;;;;4776571;30;20082;-59